createdAt,value
2023-01-01T00:08:09.025Z,16.73
2023-01-01T00:18:09.121Z,16.73
2023-01-01T00:28:09.548Z,16.76
2023-01-01T00:38:10.061Z,16.79
2023-01-01T00:48:10.051Z,16.72
2023-01-01T00:58:10.211Z,16.50
2023-01-01T01:08:11.085Z,16.29
2023-01-01T01:18:11.188Z,16.19
2023-01-01T01:28:11.177Z,16.17
2023-01-01T01:38:11.203Z,16.15
2023-01-01T01:48:11.203Z,16.15
2023-01-01T01:58:11.206Z,16.14
2023-01-01T02:08:11.717Z,16.11
2023-01-01T02:18:12.821Z,16.08
2023-01-01T02:28:13.252Z,16.06
2023-01-01T02:38:13.284Z,16.05
2023-01-01T02:48:13.323Z,16.03
2023-01-01T02:58:35.656Z,16.02
2023-01-01T03:08:36.226Z,16.00
2023-01-01T03:18:36.315Z,15.98
2023-01-01T03:28:36.421Z,15.96
2023-01-01T03:38:36.349Z,15.94
2023-01-01T03:49:02.503Z,15.92
2023-01-01T03:58:58.421Z,15.91
2023-01-01T04:08:58.352Z,15.91
2023-01-01T04:18:58.345Z,15.93
2023-01-01T04:28:58.455Z,15.94
2023-01-01T04:38:58.397Z,15.93
2023-01-01T04:48:58.456Z,15.90
2023-01-01T04:58:58.462Z,15.87
2023-01-01T05:08:59.026Z,15.84
2023-01-01T05:19:00.155Z,15.81
2023-01-01T05:29:03.568Z,15.78
2023-01-01T05:39:03.537Z,15.75
2023-01-01T05:49:03.491Z,15.73
2023-01-01T05:59:03.557Z,15.74
2023-01-01T06:09:03.531Z,15.74
2023-01-01T06:19:03.701Z,15.74
2023-01-01T06:29:03.563Z,15.74
2023-01-01T06:39:03.719Z,15.73
2023-01-01T06:49:04.221Z,15.73
2023-01-01T06:59:04.621Z,15.75
2023-01-01T07:09:04.729Z,15.76
2023-01-01T07:19:04.585Z,15.79
2023-01-01T07:29:08.285Z,15.96
2023-01-01T07:39:08.742Z,16.27
2023-01-01T07:49:08.628Z,16.50
2023-01-01T07:59:08.623Z,16.61
2023-01-01T08:09:11.722Z,16.61
2023-01-01T08:19:11.811Z,16.60
2023-01-01T08:29:11.689Z,16.59
2023-01-01T08:39:11.731Z,16.56
2023-01-01T08:49:11.713Z,16.55
2023-01-01T08:59:11.765Z,16.54
2023-01-01T09:09:11.764Z,16.53
2023-01-01T09:19:11.741Z,16.54
2023-01-01T09:29:11.797Z,16.58
2023-01-01T09:39:12.180Z,16.56
2023-01-01T09:49:12.883Z,16.52
2023-01-01T09:59:13.265Z,16.62
2023-01-01T10:09:14.014Z,16.78
2023-01-01T10:19:13.912Z,16.82
2023-01-01T10:29:13.882Z,16.74
2023-01-01T10:39:14.006Z,16.68
2023-01-01T10:49:13.908Z,16.64
2023-01-01T10:59:13.910Z,16.61
2023-01-01T11:09:13.941Z,16.61
2023-01-01T11:19:14.701Z,16.61
2023-01-01T11:29:14.937Z,16.62
2023-01-01T11:39:14.995Z,16.58
2023-01-01T11:49:14.291Z,16.64
2023-01-01T11:59:13.347Z,16.93
2023-01-01T12:09:18.125Z,17.16
2023-01-01T12:19:15.991Z,17.18
2023-01-01T12:29:16.088Z,17.09
2023-01-01T12:39:16.007Z,16.97
2023-01-01T12:49:16.004Z,16.90
2023-01-01T12:59:17.372Z,16.82
2023-01-01T13:09:17.016Z,16.68
2023-01-01T13:19:17.186Z,16.57
2023-01-01T13:29:17.097Z,16.48
2023-01-01T13:39:17.081Z,16.41
2023-01-01T13:49:17.195Z,16.32
2023-01-01T13:59:17.108Z,16.25
2023-01-01T14:09:17.323Z,16.15
2023-01-01T14:19:17.196Z,16.04
2023-01-01T14:29:17.259Z,15.91
2023-01-01T14:39:27.015Z,15.81
2023-01-01T14:49:22.390Z,15.72
2023-01-01T14:59:22.251Z,15.61
2023-01-01T15:09:22.261Z,15.50
2023-01-01T15:19:22.333Z,15.39
2023-01-01T15:29:22.639Z,15.27
2023-01-01T15:39:23.368Z,15.10
2023-01-01T15:49:23.655Z,14.90
2023-01-01T15:59:23.325Z,14.72
2023-01-01T16:09:23.333Z,14.59
2023-01-01T16:19:23.500Z,14.48
2023-01-01T16:29:23.398Z,14.36
2023-01-01T16:39:23.347Z,14.16
2023-01-01T16:49:23.408Z,13.93
2023-01-01T16:59:23.998Z,13.70
2023-01-01T17:09:24.364Z,13.48
2023-01-01T17:19:24.476Z,13.25
2023-01-01T17:29:24.466Z,13.07
2023-01-01T17:39:24.495Z,12.95
2023-01-01T17:49:24.553Z,12.86
2023-01-01T17:59:24.582Z,12.79
2023-01-01T18:09:24.836Z,12.72
2023-01-01T18:19:27.245Z,12.65
2023-01-01T18:29:27.583Z,12.60
2023-01-01T18:39:27.526Z,12.56
2023-01-01T18:49:27.604Z,12.52
2023-01-01T18:59:27.572Z,12.48
2023-01-01T19:09:27.641Z,12.43
2023-01-01T19:19:27.929Z,12.38
2023-01-01T19:29:27.590Z,12.36
2023-01-01T19:39:28.656Z,12.37
2023-01-01T19:49:28.656Z,12.39
2023-01-01T19:59:32.857Z,12.43
2023-01-01T20:09:30.625Z,12.48
2023-01-01T20:19:30.718Z,12.55
2023-01-01T20:29:30.665Z,12.63
2023-01-01T20:39:30.746Z,12.70
2023-01-01T20:49:30.702Z,12.75
2023-01-01T20:59:35.819Z,12.80
2023-01-01T21:09:32.745Z,12.87
2023-01-01T21:19:33.083Z,12.97
2023-01-01T21:29:33.685Z,13.08
2023-01-01T21:39:33.942Z,13.23
2023-01-01T21:49:34.379Z,13.40
2023-01-01T21:59:35.059Z,13.57
2023-01-01T22:09:34.946Z,13.71
2023-01-01T22:19:36.740Z,13.83
2023-01-01T22:29:36.774Z,13.96
2023-01-01T22:39:37.042Z,14.07
2023-01-01T22:49:36.975Z,14.17
2023-01-01T22:59:38.537Z,14.25
2023-01-01T23:09:39.100Z,14.35
2023-01-01T23:19:39.274Z,14.46
2023-01-01T23:29:40.016Z,14.56
2023-01-01T23:39:39.996Z,14.66
2023-01-01T23:49:39.992Z,14.76
2023-01-01T23:59:39.908Z,14.85
